Time;durP1;ratioP1;P1;durP2;ratioP2;P2;SDS_P1;SDS_P2;PMS_P1;PMS_P2;Temp;Humidity;BMP_temperature;BMP_pressure;BME280_temperature;BME280_humidity;BME280_pressure;Samples;Min_cycle;Max_cycle;Signal;HPM_P1;HPM_P2
2021/08/02 00:01:30;;;;;;;10.10;8.10;;;15.30;99.90;;;;;;5085869;28;20566;-64
2021/08/02 00:04:03;;;;;;;10.20;8.80;;;15.30;99.90;;;;;;5085581;28;20188;-64
2021/08/02 00:06:43;;;;;;;14.03;8.20;;;15.30;99.90;;;;;;5080000;28;20707;-64
2021/08/02 00:09:16;;;;;;;11.83;8.67;;;15.30;99.90;;;;;;5084747;28;20199;-64
2021/08/02 00:11:59;;;;;;;12.20;8.30;;;15.30;99.90;;;;;;5086624;28;20280;-64
2021/08/02 00:14:29;;;;;;;14.70;8.90;;;15.40;99.90;;;;;;5091549;28;20212;-64
2021/08/02 00:16:58;;;;;;;12.67;8.23;;;15.40;99.90;;;;;;5089836;28;20327;-64
2021/08/02 00:19:30;;;;;;;11.23;8.13;;;15.40;99.90;;;;;;5088625;28;20187;-64
2021/08/02 00:21:59;;;;;;;15.20;8.77;;;15.40;99.90;;;;;;5085439;28;20191;-64
2021/08/02 00:24:27;;;;;;;14.90;9.63;;;15.40;99.90;;;;;;5084922;28;20192;-64
2021/08/02 00:26:57;;;;;;;16.07;9.20;;;15.40;99.90;;;;;;5086279;28;20227;-64
2021/08/02 00:29:26;;;;;;;14.77;9.30;;;15.40;99.90;;;;;;5082896;28;20199;-64
2021/08/02 00:31:54;;;;;;;13.23;8.83;;;15.40;99.90;;;;;;5085781;28;20192;-64
2021/08/02 00:34:23;;;;;;;14.53;9.70;;;15.40;99.90;;;;;;5085416;28;20276;-64
2021/08/02 00:36:56;;;;;;;13.77;9.70;;;15.40;99.90;;;;;;5082615;28;20203;-64
2021/08/02 00:39:33;;;;;;;10.63;9.23;;;15.40;99.90;;;;;;5083344;28;20231;-64
2021/08/02 00:42:42;;;;;;;15.73;9.50;;;15.40;99.90;;;;;;5083342;28;20405;-64
2021/08/02 00:45:14;;;;;;;12.67;9.70;;;15.40;99.90;;;;;;5084901;28;20471;-64
2021/08/02 00:47:48;;;;;;;17.57;9.77;;;15.40;99.90;;;;;;5084434;28;20334;-64
2021/08/02 00:50:19;;;;;;;11.43;9.90;;;15.40;99.90;;;;;;5082325;28;20219;-64
2021/08/02 00:52:52;;;;;;;13.20;9.40;;;15.40;99.90;;;;;;5086767;28;20268;-65
2021/08/02 00:55:21;;;;;;;11.50;8.90;;;15.40;99.90;;;;;;5084808;28;20195;-64
2021/08/02 00:57:53;;;;;;;15.27;9.80;;;15.40;99.90;;;;;;5087774;28;20310;-64
2021/08/02 01:00:25;;;;;;;16.23;9.90;;;15.40;99.90;;;;;;5088266;28;20673;-64
2021/08/02 01:02:54;;;;;;;14.03;9.87;;;15.40;99.90;;;;;;5085403;28;20666;-64
2021/08/02 01:05:24;;;;;;;12.83;9.73;;;15.50;99.90;;;;;;5084424;28;20188;-64
2021/08/02 01:07:58;;;;;;;12.37;9.20;;;15.50;99.90;;;;;;5084387;28;20237;-64
2021/08/02 01:10:27;;;;;;;12.47;9.60;;;15.50;99.90;;;;;;5091639;28;20666;-64
2021/08/02 01:13:01;;;;;;;11.47;9.20;;;15.50;99.90;;;;;;5086455;28;20282;-64
2021/08/02 01:15:30;;;;;;;10.43;9.30;;;15.50;99.90;;;;;;5082358;28;20230;-64
2021/08/02 01:18:00;;;;;;;13.47;9.67;;;15.50;99.90;;;;;;5088507;28;20238;-64
2021/08/02 01:20:31;;;;;;;13.33;9.93;;;15.50;99.90;;;;;;5099174;28;20191;-64
2021/08/02 01:23:06;;;;;;;10.67;9.17;;;15.50;99.90;;;;;;5082034;28;20275;-64
2021/08/02 01:26:10;;;;;;;10.57;8.17;;;15.50;99.90;;;;;;5083132;28;20290;-64
2021/08/02 01:29:15;;;;;;;12.10;8.00;;;15.40;99.90;;;;;;5082920;28;20199;-64
2021/08/02 01:31:44;;;;;;;12.03;8.07;;;15.40;99.90;;;;;;5083587;28;20286;-64
2021/08/02 01:34:12;;;;;;;12.37;7.33;;;15.40;99.90;;;;;;5083626;28;21145;-64
2021/08/02 01:36:40;;;;;;;7.80;6.93;;;15.40;99.90;;;;;;5085876;28;20300;-64
2021/08/02 01:39:13;;;;;;;7.13;5.83;;;15.40;99.90;;;;;;5085123;28;20194;-64
2021/08/02 01:41:41;;;;;;;8.63;6.37;;;15.40;99.90;;;;;;5092163;28;20252;-64
2021/08/02 01:44:09;;;;;;;6.40;5.77;;;15.30;99.90;;;;;;5085558;28;20175;-64
2021/08/02 01:46:44;;;;;;;7.47;5.37;;;15.30;99.90;;;;;;5093491;28;20238;-64
2021/08/02 01:49:22;;;;;;;6.93;5.33;;;15.20;99.90;;;;;;5083613;28;20198;-64
2021/08/02 01:51:51;;;;;;;6.63;5.13;;;15.20;99.90;;;;;;5089360;28;20739;-64
2021/08/02 01:54:35;;;;;;;7.40;4.97;;;15.10;99.90;;;;;;5085118;28;20303;-64
2021/08/02 01:57:08;;;;;;;5.13;4.43;;;15.10;99.90;;;;;;5084337;28;20235;-64
2021/08/02 01:59:41;;;;;;;7.80;4.30;;;15.10;99.90;;;;;;5091544;28;20312;-64
2021/08/02 02:02:14;;;;;;;4.93;4.53;;;15.10;99.90;;;;;;5086070;28;20191;-64
2021/08/02 02:04:49;;;;;;;4.73;4.23;;;15.10;99.90;;;;;;5084533;28;20198;-64
2021/08/02 02:07:20;;;;;;;7.33;4.70;;;15.10;99.90;;;;;;5082915;28;20236;-64
2021/08/02 02:09:51;;;;;;;7.57;4.60;;;15.10;99.90;;;;;;5082246;28;20202;-64
2021/08/02 02:12:20;;;;;;;8.47;4.40;;;15.10;99.90;;;;;;5088297;28;20248;-64
2021/08/02 02:14:52;;;;;;;10.50;4.80;;;15.00;99.90;;;;;;5085888;28;20532;-64
2021/08/02 02:17:22;;;;;;;6.57;4.70;;;15.00;99.90;;;;;;5086894;28;20456;-64
2021/08/02 02:19:52;;;;;;;7.23;4.10;;;15.00;99.90;;;;;;5088635;28;20544;-64
2021/08/02 02:22:24;;;;;;;5.27;4.63;;;14.90;99.90;;;;;;5088334;28;20232;-64
2021/08/02 02:24:55;;;;;;;7.23;5.27;;;14.90;99.90;;;;;;5074181;28;20745;-64
2021/08/02 02:27:23;;;;;;;7.10;4.70;;;14.90;99.90;;;;;;5080927;28;20220;-64
2021/08/02 02:29:53;;;;;;;4.53;4.13;;;14.90;99.90;;;;;;5086943;28;20278;-64
2021/08/02 02:32:21;;;;;;;5.87;4.57;;;14.90;99.90;;;;;;5082999;28;20234;-64
2021/08/02 02:34:54;;;;;;;8.50;4.50;;;14.90;99.90;;;;;;5085810;28;20736;-64
2021/08/02 02:37:24;;;;;;;5.07;4.67;;;14.90;99.90;;;;;;5079235;28;20295;-64
2021/08/02 02:39:54;;;;;;;5.33;4.77;;;14.80;99.90;;;;;;5085862;28;20282;-64
2021/08/02 02:42:24;;;;;;;6.83;5.30;;;14.80;99.90;;;;;;5084546;28;20219;-64
2021/08/02 02:44:53;;;;;;;5.27;4.47;;;14.80;99.90;;;;;;5084821;28;20235;-64
2021/08/02 02:47:22;;;;;;;7.63;4.60;;;14.80;99.90;;;;;;5086621;28;20586;-64
2021/08/02 02:49:51;;;;;;;6.07;5.50;;;14.80;99.90;;;;;;5087654;28;20215;-64
2021/08/02 02:52:21;;;;;;;6.73;5.23;;;14.80;99.90;;;;;;5085498;28;20706;-64
2021/08/02 02:54:52;;;;;;;6.10;5.17;;;14.80;99.90;;;;;;5085799;28;20282;-64
2021/08/02 02:57:22;;;;;;;7.50;5.30;;;14.80;99.90;;;;;;5084959;28;20555;-64
2021/08/02 02:59:50;;;;;;;5.90;5.40;;;14.80;99.90;;;;;;5082301;28;20230;-65
2021/08/02 03:02:21;;;;;;;6.93;6.10;;;14.80;99.90;;;;;;5084234;28;20666;-64
2021/08/02 03:04:54;;;;;;;6.33;5.70;;;14.80;99.90;;;;;;5082516;28;20188;-64
2021/08/02 03:07:23;;;;;;;7.40;6.07;;;14.80;99.90;;;;;;5085928;28;20211;-64
2021/08/02 03:09:52;;;;;;;7.77;6.27;;;14.70;99.90;;;;;;5085705;28;20295;-64
2021/08/02 03:12:21;;;;;;;8.03;6.40;;;14.70;99.90;;;;;;5083907;28;20235;-64
2021/08/02 03:14:50;;;;;;;10.23;6.20;;;14.70;99.90;;;;;;5085440;28;20187;-64
2021/08/02 03:17:18;;;;;;;9.83;6.40;;;14.70;99.90;;;;;;5085692;28;20250;-64
2021/08/02 03:19:46;;;;;;;10.80;6.70;;;14.70;99.90;;;;;;5084350;28;20684;-64
2021/08/02 03:22:24;;;;;;;8.50;6.03;;;14.70;99.90;;;;;;5088924;28;20293;-64
2021/08/02 03:24:59;;;;;;;9.40;6.17;;;14.70;99.90;;;;;;5101867;28;20203;-64
2021/08/02 03:27:34;;;;;;;10.23;6.10;;;14.70;99.90;;;;;;5083000;28;20252;-64
2021/08/02 03:30:06;;;;;;;10.23;6.50;;;14.70;99.90;;;;;;5082145;28;20211;-64
2021/08/02 03:32:36;;;;;;;7.60;6.20;;;14.70;99.90;;;;;;5082889;28;21030;-64
2021/08/02 03:35:09;;;;;;;7.73;6.30;;;14.70;99.90;;;;;;5085090;28;20186;-65
2021/08/02 03:37:38;;;;;;;7.50;6.10;;;14.70;99.90;;;;;;5085335;28;20243;-64
2021/08/02 03:40:10;;;;;;;11.27;6.10;;;14.70;99.90;;;;;;5099193;28;20230;-64
2021/08/02 03:42:41;;;;;;;6.90;6.27;;;14.70;99.90;;;;;;5084233;28;20628;-64
2021/08/02 03:45:11;;;;;;;7.13;6.00;;;14.70;99.90;;;;;;5086295;28;20192;-64
2021/08/02 03:47:41;;;;;;;6.77;6.03;;;14.70;99.90;;;;;;5083734;28;20298;-65
2021/08/02 03:50:11;;;;;;;10.53;6.10;;;14.70;99.90;;;;;;5081899;28;20278;-64
2021/08/02 03:52:39;;;;;;;12.30;6.73;;;14.70;99.90;;;;;;5082275;28;20211;-64
2021/08/02 03:55:10;;;;;;;11.70;6.03;;;14.60;99.90;;;;;;5084509;28;20565;-64
2021/08/02 03:57:39;;;;;;;11.17;6.57;;;14.60;99.90;;;;;;5084583;28;20231;-64
2021/08/02 04:00:09;;;;;;;5.80;5.40;;;14.70;99.90;;;;;;5081611;28;20950;-64
2021/08/02 04:02:38;;;;;;;6.73;6.00;;;14.60;99.90;;;;;;5082649;28;20213;-64
2021/08/02 04:05:08;;;;;;;8.53;6.23;;;14.60;99.90;;;;;;5083538;28;20195;-64
2021/08/02 04:07:40;;;;;;;9.80;6.03;;;14.60;99.90;;;;;;5086736;28;20625;-65
2021/08/02 04:10:09;;;;;;;7.23;5.93;;;14.60;99.90;;;;;;5086276;28;20226;-64
2021/08/02 04:12:52;;;;;;;9.07;6.10;;;14.60;99.90;;;;;;5079878;28;20217;-65
2021/08/02 04:15:22;;;;;;;11.00;6.73;;;14.60;99.90;;;;;;5082435;28;20234;-65
2021/08/02 04:17:50;;;;;;;8.67;5.90;;;14.60;99.90;;;;;;5079959;28;20191;-65
2021/08/02 04:20:20;;;;;;;8.50;6.10;;;14.60;99.90;;;;;;5086082;28;20196;-65
2021/08/02 04:22:51;;;;;;;8.17;6.20;;;14.60;99.90;;;;;;5066191;28;20670;-65
2021/08/02 04:25:19;;;;;;;11.10;6.20;;;14.60;99.90;;;;;;5081775;28;20203;-65
2021/08/02 04:27:48;;;;;;;12.50;6.53;;;14.60;99.90;;;;;;5083437;28;20211;-65
2021/08/02 04:30:17;;;;;;;9.33;6.20;;;14.60;99.90;;;;;;5083472;28;20283;-64
2021/08/02 04:32:46;;;;;;;11.23;6.63;;;14.60;99.90;;;;;;5084851;28;20183;-65
2021/08/02 04:35:15;;;;;;;9.40;6.40;;;14.60;99.90;;;;;;5085013;28;20187;-65
2021/08/02 04:37:43;;;;;;;7.00;6.13;;;14.60;99.90;;;;;;5082099;28;20187;-65
2021/08/02 04:40:13;;;;;;;13.60;6.57;;;14.60;99.90;;;;;;5082570;28;20305;-65
2021/08/02 04:42:41;;;;;;;9.10;6.00;;;14.60;99.90;;;;;;5084192;28;20205;-65
2021/08/02 04:45:12;;;;;;;10.00;6.50;;;14.60;99.90;;;;;;5080583;28;20199;-65
2021/08/02 04:47:42;;;;;;;9.77;6.00;;;14.50;99.90;;;;;;5082093;28;20600;-65
2021/08/02 04:50:11;;;;;;;7.37;5.70;;;14.50;99.90;;;;;;5100116;28;20192;-65
2021/08/02 04:52:39;;;;;;;9.30;6.33;;;14.50;99.90;;;;;;5086473;28;20206;-65
2021/08/02 04:55:09;;;;;;;7.83;5.50;;;14.50;99.90;;;;;;5084162;28;20185;-65
2021/08/02 04:57:37;;;;;;;7.83;5.40;;;14.50;99.90;;;;;;5081591;28;20282;-64
2021/08/02 05:00:07;;;;;;;8.33;4.80;;;14.50;99.90;;;;;;5081663;28;20248;-65
2021/08/02 05:02:42;;;;;;;8.33;4.83;;;14.40;99.90;;;;;;5084159;28;20554;-66
2021/08/02 05:05:12;;;;;;;7.60;4.97;;;14.40;99.90;;;;;;5084968;28;20658;-65
2021/08/02 05:07:43;;;;;;;6.63;5.00;;;14.40;99.90;;;;;;5079912;28;20210;-66
2021/08/02 05:10:12;;;;;;;7.63;5.03;;;14.40;99.90;;;;;;5082861;28;20818;-66
2021/08/02 05:12:41;;;;;;;7.97;5.50;;;14.40;99.90;;;;;;5088235;28;20190;-66
2021/08/02 05:15:13;;;;;;;9.90;5.50;;;14.40;99.90;;;;;;5079373;28;20227;-66
2021/08/02 05:17:44;;;;;;;7.83;5.23;;;14.40;99.90;;;;;;5081252;28;20201;-66
2021/08/02 05:20:13;;;;;;;8.90;5.27;;;14.30;99.90;;;;;;5092725;28;20219;-66
2021/08/02 05:22:42;;;;;;;8.60;5.43;;;14.30;99.90;;;;;;5099263;28;20492;-66
2021/08/02 05:25:11;;;;;;;5.90;5.10;;;14.40;99.90;;;;;;5078887;28;20662;-66
2021/08/02 05:27:39;;;;;;;6.10;5.00;;;14.30;99.90;;;;;;5082318;28;20222;-66
2021/08/02 05:30:10;;;;;;;5.90;4.63;;;14.30;99.90;;;;;;5084391;28;20188;-66
2021/08/02 05:32:38;;;;;;;8.63;5.70;;;14.30;99.90;;;;;;5088413;28;20237;-66
2021/08/02 05:35:10;;;;;;;7.13;5.37;;;14.20;99.90;;;;;;5085208;28;20187;-66
2021/08/02 05:37:42;;;;;;;10.43;5.80;;;14.20;99.90;;;;;;5083518;28;20225;-66
2021/08/02 05:40:12;;;;;;;6.57;5.50;;;14.20;99.90;;;;;;5080730;28;20306;-66
2021/08/02 05:42:41;;;;;;;8.53;6.00;;;14.20;99.90;;;;;;5082975;28;20187;-66
2021/08/02 05:45:15;;;;;;;7.97;5.43;;;14.20;99.90;;;;;;5081776;28;20203;-67
2021/08/02 05:47:43;;;;;;;6.87;4.93;;;14.20;99.90;;;;;;5098906;28;20192;-67
2021/08/02 05:50:13;;;;;;;9.57;4.73;;;14.20;99.90;;;;;;5085917;28;20180;-66
2021/08/02 05:52:42;;;;;;;6.03;5.17;;;14.10;99.90;;;;;;5085887;28;20252;-66
2021/08/02 05:55:14;;;;;;;6.63;5.27;;;14.00;99.90;;;;;;5079304;28;20662;-67
2021/08/02 05:57:47;;;;;;;7.93;4.70;;;14.00;99.90;;;;;;5083824;28;20187;-67
2021/08/02 06:00:17;;;;;;;9.47;5.43;;;14.00;99.90;;;;;;5085796;28;20223;-66
2021/08/02 06:02:45;;;;;;;5.90;5.17;;;14.00;99.90;;;;;;5085299;28;20558;-67
2021/08/02 06:05:21;;;;;;;10.13;5.27;;;14.10;99.90;;;;;;5081416;28;20207;-67
2021/08/02 06:07:55;;;;;;;8.43;5.00;;;14.10;99.90;;;;;;5084049;28;20187;-66
2021/08/02 06:10:24;;;;;;;9.00;5.80;;;14.10;99.90;;;;;;5083060;28;20191;-66
2021/08/02 06:12:54;;;;;;;8.70;5.17;;;14.00;99.90;;;;;;5086393;28;20284;-66
2021/08/02 06:15:23;;;;;;;7.53;5.57;;;14.00;99.90;;;;;;5089991;28;20280;-66
2021/08/02 06:17:51;;;;;;;8.27;5.23;;;14.10;99.90;;;;;;5083518;28;20430;-66
2021/08/02 06:20:21;;;;;;;6.67;5.13;;;14.10;99.90;;;;;;5082614;28;20224;-66
2021/08/02 06:22:49;;;;;;;7.40;5.07;;;14.10;99.90;;;;;;5083706;28;20199;-66
2021/08/02 06:25:18;;;;;;;8.90;5.67;;;14.10;99.90;;;;;;5083334;28;20768;-66
2021/08/02 06:27:47;;;;;;;11.43;5.67;;;14.20;99.90;;;;;;5082996;28;20207;-66
2021/08/02 06:30:18;;;;;;;11.67;6.73;;;14.20;99.90;;;;;;5084157;28;20210;-67
2021/08/02 06:32:46;;;;;;;8.13;5.70;;;14.20;99.90;;;;;;5082810;28;20229;-66
2021/08/02 06:35:15;;;;;;;8.73;5.90;;;14.30;99.90;;;;;;5084267;28;20736;-66
2021/08/02 06:37:46;;;;;;;9.67;6.40;;;14.30;99.90;;;;;;5086768;28;20191;-67
2021/08/02 06:40:16;;;;;;;12.43;6.63;;;14.30;99.90;;;;;;5087757;28;20219;-66
2021/08/02 06:42:46;;;;;;;14.27;6.37;;;14.40;99.90;;;;;;5086406;28;20195;-67
2021/08/02 06:45:15;;;;;;;7.90;5.80;;;14.40;99.90;;;;;;5091232;28;20641;-66
2021/08/02 06:47:43;;;;;;;12.03;6.70;;;14.40;99.90;;;;;;5085510;28;20721;-66
2021/08/02 06:50:12;;;;;;;9.37;6.60;;;14.40;99.90;;;;;;5089664;28;20546;-66
2021/08/02 06:52:40;;;;;;;9.10;7.00;;;14.50;99.90;;;;;;5086203;28;20192;-66
2021/08/02 06:55:12;;;;;;;10.03;6.50;;;14.50;99.90;;;;;;5087765;28;20245;-66
2021/08/02 06:57:40;;;;;;;11.07;6.83;;;14.60;99.90;;;;;;5085169;28;20196;-66
2021/08/02 07:00:10;;;;;;;11.00;6.90;;;14.60;99.90;;;;;;5086097;28;20256;-66
2021/08/02 07:02:39;;;;;;;9.23;7.20;;;14.70;99.90;;;;;;5087148;28;20204;-66
2021/08/02 07:05:10;;;;;;;9.33;7.33;;;14.90;99.90;;;;;;5083351;28;20194;-66
2021/08/02 07:07:39;;;;;;;9.57;7.03;;;14.90;99.90;;;;;;5085466;28;20200;-66
2021/08/02 07:10:08;;;;;;;9.67;6.77;;;14.90;99.90;;;;;;5082220;28;20282;-66
2021/08/02 07:12:38;;;;;;;9.97;7.00;;;15.00;99.90;;;;;;5085132;28;20344;-66
2021/08/02 07:15:08;;;;;;;10.33;7.60;;;15.10;99.90;;;;;;5087109;28;20210;-66
2021/08/02 07:17:36;;;;;;;9.43;7.20;;;15.20;99.90;;;;;;5084133;28;20187;-66
2021/08/02 07:20:06;;;;;;;6.90;6.20;;;15.10;99.90;;;;;;5082029;28;20239;-66
2021/08/02 07:22:34;;;;;;;8.03;6.40;;;15.20;99.90;;;;;;5082997;28;20203;-66
2021/08/02 07:25:07;;;;;;;8.13;6.50;;;15.30;99.90;;;;;;5084750;28;20215;-66
2021/08/02 07:27:38;;;;;;;9.90;7.10;;;15.40;99.90;;;;;;5083858;28;20196;-66
2021/08/02 07:30:12;;;;;;;8.60;6.37;;;15.30;99.90;;;;;;5083887;28;20217;-66
2021/08/02 07:32:48;;;;;;;8.67;7.47;;;15.20;99.90;;;;;;5083372;28;20192;-66
2021/08/02 07:35:17;;;;;;;8.60;6.77;;;15.40;99.90;;;;;;5085925;28;20234;-66
2021/08/02 07:37:47;;;;;;;12.30;7.03;;;15.50;99.90;;;;;;5083374;28;20684;-66
2021/08/02 07:40:15;;;;;;;9.27;7.73;;;15.60;99.90;;;;;;5089477;28;20298;-66
2021/08/02 07:42:45;;;;;;;9.17;7.00;;;15.60;99.90;;;;;;5081120;28;20191;-66
2021/08/02 07:45:14;;;;;;;9.77;7.00;;;15.70;99.90;;;;;;5077504;28;20189;-66
2021/08/02 07:47:42;;;;;;;8.67;7.13;;;15.80;99.90;;;;;;5083118;28;20208;-66
2021/08/02 07:50:15;;;;;;;9.03;7.13;;;15.90;99.90;;;;;;5084693;28;20237;-66
2021/08/02 07:52:44;;;;;;;8.63;7.07;;;16.00;99.90;;;;;;5087826;28;20190;-67
2021/08/02 07:55:13;;;;;;;8.03;7.20;;;16.00;99.90;;;;;;5084623;28;20199;-66
2021/08/02 07:57:43;;;;;;;9.73;8.37;;;16.00;99.90;;;;;;5086116;28;20283;-66
2021/08/02 08:00:16;;;;;;;10.70;8.00;;;16.10;99.90;;;;;;5086634;28;20233;-66
2021/08/02 08:02:46;;;;;;;8.50;6.80;;;16.10;99.90;;;;;;5084701;28;20285;-66
2021/08/02 08:05:16;;;;;;;10.87;7.17;;;16.00;99.90;;;;;;5080970;28;20270;-66
2021/08/02 08:07:47;;;;;;;7.63;6.70;;;16.20;99.90;;;;;;5081643;28;20208;-66
2021/08/02 08:10:16;;;;;;;8.60;7.07;;;16.20;99.90;;;;;;5082784;28;20191;-66
2021/08/02 08:12:45;;;;;;;8.93;7.00;;;16.20;99.90;;;;;;5079599;28;20192;-66
2021/08/02 08:15:16;;;;;;;9.03;7.37;;;16.40;99.90;;;;;;5079318;28;20210;-66
2021/08/02 08:17:46;;;;;;;8.37;6.70;;;16.50;99.90;;;;;;5077466;28;20197;-66
2021/08/02 08:20:18;;;;;;;6.87;5.53;;;16.60;99.90;;;;;;5076894;28;20218;-66
2021/08/02 08:22:47;;;;;;;6.90;5.20;;;16.70;99.90;;;;;;5077463;28;20229;-66
2021/08/02 08:25:17;;;;;;;5.73;5.10;;;16.80;99.90;;;;;;5080122;28;20271;-66
2021/08/02 08:27:47;;;;;;;5.53;4.53;;;17.00;99.90;;;;;;5077267;28;20190;-66
2021/08/02 08:30:19;;;;;;;4.40;4.00;;;17.10;99.90;;;;;;5078157;28;20187;-66
2021/08/02 08:32:47;;;;;;;5.73;4.40;;;17.40;99.90;;;;;;5078280;28;20613;-66
2021/08/02 08:35:16;;;;;;;5.03;4.50;;;17.50;99.90;;;;;;5082163;28;20667;-66
2021/08/02 08:37:44;;;;;;;6.23;4.93;;;17.50;99.90;;;;;;5080606;28;20191;-66
2021/08/02 08:40:14;;;;;;;6.57;5.07;;;17.60;99.90;;;;;;5071530;28;20191;-66
2021/08/02 08:42:43;;;;;;;4.90;4.50;;;17.70;99.90;;;;;;5059288;28;20245;-66
2021/08/02 08:45:14;;;;;;;6.50;4.70;;;17.90;99.90;;;;;;5079679;28;20198;-66
2021/08/02 08:47:45;;;;;;;5.07;4.60;;;18.10;99.90;;;;;;5061344;28;20234;-66
2021/08/02 08:50:16;;;;;;;5.43;5.00;;;18.20;99.90;;;;;;5078820;28;20662;-66
2021/08/02 08:52:45;;;;;;;5.93;4.37;;;18.80;99.90;;;;;;5082767;28;20207;-66
2021/08/02 08:55:15;;;;;;;4.40;4.00;;;19.10;99.90;;;;;;5079967;28;20199;-66
2021/08/02 08:57:44;;;;;;;4.63;3.83;;;19.40;99.90;;;;;;5076524;28;20580;-66
2021/08/02 09:00:23;;;;;;;5.83;4.70;;;19.60;99.90;;;;;;5080543;28;20246;-66
2021/08/02 09:02:54;;;;;;;4.17;3.87;;;19.50;99.90;;;;;;5085311;28;20225;-66
2021/08/02 09:05:33;;;;;;;5.40;4.10;;;19.40;99.90;;;;;;5089562;28;20278;-66
2021/08/02 09:08:04;;;;;;;6.00;4.20;;;19.30;99.90;;;;;;5070327;28;20241;-66
2021/08/02 09:10:34;;;;;;;4.63;4.23;;;19.20;99.90;;;;;;5083611;28;20218;-66
2021/08/02 09:13:05;;;;;;;4.83;4.30;;;19.00;99.90;;;;;;5073282;28;20673;-66
2021/08/02 09:15:36;;;;;;;5.83;3.80;;;19.00;99.90;;;;;;5083684;28;20223;-66
2021/08/02 09:18:10;;;;;;;4.30;3.90;;;19.10;99.90;;;;;;5076796;28;20202;-66
2021/08/02 09:20:39;;;;;;;3.73;3.30;;;19.10;99.90;;;;;;5085969;28;20199;-66
2021/08/02 09:23:09;;;;;;;6.10;3.23;;;19.10;99.90;;;;;;5086148;28;20222;-66
2021/08/02 09:25:47;;;;;;;2.97;2.77;;;19.20;99.90;;;;;;5088342;28;20194;-66
2021/08/02 09:28:17;;;;;;;3.37;3.07;;;19.20;99.90;;;;;;5085954;28;21064;-66
2021/08/02 09:31:00;;;;;;;3.47;2.97;;;19.30;99.90;;;;;;5082389;28;20203;-66
2021/08/02 09:33:42;;;;;;;2.93;2.20;;;19.50;99.90;;;;;;5089642;28;20215;-66
2021/08/02 09:36:11;;;;;;;3.03;2.60;;;20.00;99.90;;;;;;5097581;28;20681;-66
2021/08/02 09:38:42;;;;;;;3.60;2.70;;;20.70;99.90;;;;;;5103377;28;20212;-66
2021/08/02 09:41:20;;;;;;;4.87;2.70;;;21.20;99.90;;;;;;5080337;28;20306;-66
2021/08/02 09:43:52;;;;;;;2.97;2.30;;;21.80;99.90;;;;;;5090357;28;20680;-66
2021/08/02 09:46:21;;;;;;;4.43;2.60;;;22.10;99.90;;;;;;5089115;28;20195;-66
2021/08/02 09:48:51;;;;;;;2.42;2.25;;;23.10;99.90;;;;;;5090658;28;20197;-66
2021/08/02 09:51:22;;;;;;;2.40;1.92;;;24.20;99.90;;;;;;5090264;28;20187;-67
2021/08/02 09:53:51;;;;;;;3.38;2.33;;;24.70;99.90;;;;;;5086146;28;20195;-66
2021/08/02 09:56:22;;;;;;;2.40;2.20;;;24.90;99.90;;;;;;5088852;28;20676;-66
2021/08/02 09:59:09;;;;;;;3.15;2.40;;;24.60;99.90;;;;;;5093351;28;20793;-66
2021/08/02 10:01:38;;;;;;;3.17;2.50;;;24.80;99.90;;;;;;5084872;28;20224;-66
2021/08/02 10:04:11;;;;;;;2.70;2.45;;;24.90;99.90;;;;;;5085449;28;20213;-66
2021/08/02 10:06:40;;;;;;;3.97;2.28;;;25.00;99.90;;;;;;5096711;28;20204;-66
2021/08/02 10:09:12;;;;;;;9.63;2.28;;;24.50;99.90;;;;;;5092090;28;20596;-66
2021/08/02 10:11:40;;;;;;;3.47;2.85;;;23.70;99.90;;;;;;5073025;28;20195;-66
2021/08/02 10:14:10;;;;;;;2.70;2.50;;;22.90;99.90;;;;;;5095607;28;20656;-66
2021/08/02 10:16:43;;;;;;;3.60;3.27;;;22.10;99.90;;;;;;5093526;28;20279;-66
2021/08/02 10:19:14;;;;;;;2.93;2.70;;;21.50;99.90;;;;;;5098497;28;20222;-66
2021/08/02 10:21:43;;;;;;;3.17;2.70;;;20.90;99.90;;;;;;5060257;28;20217;-66
2021/08/02 10:24:14;;;;;;;3.70;3.00;;;20.60;99.90;;;;;;5079452;28;20708;-66
2021/08/02 10:26:56;;;;;;;3.53;3.07;;;20.50;99.90;;;;;;5083463;28;20199;-66
2021/08/02 10:29:26;;;;;;;3.33;3.03;;;21.10;99.90;;;;;;5082875;28;20195;-66
2021/08/02 10:31:55;;;;;;;6.83;3.00;;;22.00;99.90;;;;;;5085521;28;20278;-66
2021/08/02 10:34:27;;;;;;;3.17;2.90;;;23.00;99.90;;;;;;5086727;28;20215;-66
2021/08/02 10:36:58;;;;;;;4.90;2.83;;;23.90;99.90;;;;;;5088508;28;20254;-66
2021/08/02 10:39:28;;;;;;;2.90;2.70;;;24.20;99.90;;;;;;5085422;28;20197;-66
2021/08/02 10:42:07;;;;;;;2.67;2.53;;;24.10;99.90;;;;;;5085039;28;20351;-66
2021/08/02 10:44:54;;;;;;;4.10;2.37;;;23.20;99.90;;;;;;5084213;28;20940;-66
2021/08/02 10:47:24;;;;;;;3.80;2.80;;;22.40;99.90;;;;;;5069345;28;20221;-66
2021/08/02 10:49:54;;;;;;;3.50;3.03;;;21.90;99.90;;;;;;5083995;28;20188;-65
2021/08/02 10:52:27;;;;;;;4.43;3.10;;;21.50;99.90;;;;;;5090274;28;20212;-66
2021/08/02 10:54:57;;;;;;;3.83;2.80;;;21.20;99.90;;;;;;5089497;28;20192;-66
2021/08/02 10:57:27;;;;;;;4.20;3.30;;;21.00;99.90;;;;;;5090538;28;20207;-66
2021/08/02 10:59:55;;;;;;;4.20;3.10;;;20.80;99.90;;;;;;5090068;28;20195;-66
2021/08/02 11:02:24;;;;;;;6.37;2.77;;;20.60;99.90;;;;;;5087907;28;20224;-66
2021/08/02 11:04:56;;;;;;;3.17;2.93;;;20.40;99.90;;;;;;5089479;28;20218;-66
2021/08/02 11:07:24;;;;;;;3.40;3.20;;;20.40;99.90;;;;;;5088835;28;20661;-66
2021/08/02 11:09:53;;;;;;;4.80;3.63;;;20.30;99.90;;;;;;5088641;28;20197;-66
2021/08/02 11:12:21;;;;;;;8.07;3.70;;;20.30;99.90;;;;;;5085968;28;20715;-66
2021/08/02 11:14:54;;;;;;;3.50;3.20;;;20.40;99.90;;;;;;5083007;28;20191;-66
2021/08/02 11:17:28;;;;;;;7.30;3.20;;;20.90;99.90;;;;;;5084999;28;20628;-66
2021/08/02 11:20:08;;;;;;;3.40;3.17;;;21.80;99.90;;;;;;5079041;28;20379;-66
2021/08/02 11:22:50;;;;;;;6.03;2.60;;;22.50;99.90;;;;;;5084842;28;20587;-66
2021/08/02 11:25:23;;;;;;;3.77;2.60;;;23.00;99.90;;;;;;5083168;28;20227;-66
2021/08/02 11:27:53;;;;;;;2.87;2.67;;;23.40;99.90;;;;;;5087466;28;20199;-66
2021/08/02 11:30:24;;;;;;;2.40;2.23;;;23.30;99.90;;;;;;5079223;28;20191;-67
2021/08/02 11:32:52;;;;;;;4.87;3.57;;;23.20;99.90;;;;;;5084478;28;20206;-66
2021/08/02 11:35:32;;;;;;;6.67;3.13;;;23.10;99.90;;;;;;5086839;28;20195;-66
2021/08/02 11:38:00;;;;;;;10.17;4.90;;;22.90;99.90;;;;;;5085160;28;20194;-66
2021/08/02 11:40:35;;;;;;;3.23;2.93;;;22.40;99.90;;;;;;5094187;28;20184;-66
2021/08/02 11:43:05;;;;;;;10.13;5.00;;;22.00;99.90;;;;;;5085646;28;20214;-66
2021/08/02 11:45:36;;;;;;;7.63;4.27;;;21.80;99.90;;;;;;5082433;28;20204;-66
2021/08/02 11:48:09;;;;;;;38.73;14.73;;;21.70;99.90;;;;;;5094806;28;20209;-65
2021/08/02 11:50:40;;;;;;;3.10;2.80;;;21.60;99.90;;;;;;5083747;28;20197;-66
2021/08/02 11:53:09;;;;;;;3.03;2.77;;;21.50;99.90;;;;;;5086197;28;20198;-66
2021/08/02 11:55:50;;;;;;;2.73;2.53;;;21.40;99.90;;;;;;5083621;28;20701;-67
2021/08/02 11:58:18;;;;;;;6.57;3.00;;;21.40;99.90;;;;;;5083293;28;20197;-67
2021/08/02 12:00:49;;;;;;;4.30;2.60;;;21.50;99.90;;;;;;5079372;28;20568;-67
2021/08/02 12:03:20;;;;;;;2.97;2.67;;;21.70;99.90;;;;;;5082082;28;20201;-66
2021/08/02 12:06:02;;;;;;;3.30;2.37;;;21.70;99.90;;;;;;5085935;28;20188;-66
2021/08/02 12:08:31;;;;;;;2.57;2.47;;;21.70;99.90;;;;;;5081733;28;20199;-66
2021/08/02 12:11:02;;;;;;;4.50;2.50;;;21.60;99.90;;;;;;5083707;28;20181;-66
2021/08/02 12:13:43;;;;;;;4.07;2.47;;;21.60;99.90;;;;;;5084568;28;20315;-66
2021/08/02 12:16:13;;;;;;;5.23;2.60;;;21.50;99.90;;;;;;5084156;28;20232;-66
2021/08/02 12:18:50;;;;;;;2.43;2.23;;;21.40;99.90;;;;;;5068561;28;20534;-66
2021/08/02 12:21:24;;;;;;;3.67;2.50;;;21.40;99.90;;;;;;5087584;28;20215;-66
2021/08/02 12:24:07;;;;;;;3.70;2.23;;;21.30;99.90;;;;;;5093378;28;20203;-66
2021/08/02 12:26:38;;;;;;;4.77;2.10;;;21.30;99.90;;;;;;5088961;28;20200;-66
2021/08/02 12:29:06;;;;;;;2.20;2.07;;;21.30;99.90;;;;;;5085449;28;20199;-66
2021/08/02 12:31:38;;;;;;;3.97;2.00;;;21.20;99.90;;;;;;5087381;28;20278;-66
2021/08/02 12:34:07;;;;;;;4.77;2.43;;;21.20;99.90;;;;;;5081330;28;20195;-67
2021/08/02 12:36:36;;;;;;;2.37;2.20;;;21.40;99.90;;;;;;5081363;28;20233;-67
2021/08/02 12:39:05;;;;;;;2.57;2.23;;;21.80;99.90;;;;;;5085832;28;20244;-67
2021/08/02 12:41:37;;;;;;;2.13;2.03;;;22.20;99.90;;;;;;5086386;28;20275;-67
2021/08/02 12:44:24;;;;;;;2.20;1.90;;;22.20;99.90;;;;;;5084455;28;20427;-67
2021/08/02 12:46:52;;;;;;;4.60;2.27;;;22.10;99.90;;;;;;5080658;28;20223;-67
2021/08/02 12:49:21;;;;;;;2.20;2.10;;;22.10;99.90;;;;;;5082030;28;20662;-67
2021/08/02 12:51:51;;;;;;;2.43;2.20;;;22.10;99.90;;;;;;5080967;28;20200;-67
2021/08/02 12:54:20;;;;;;;3.97;2.03;;;22.10;99.90;;;;;;5080771;28;20181;-67
2021/08/02 12:56:50;;;;;;;3.27;2.03;;;22.40;99.90;;;;;;5086492;28;20600;-67
2021/08/02 12:59:20;;;;;;;1.70;1.60;;;22.70;99.90;;;;;;5081836;28;20860;-67
2021/08/02 13:01:49;;;;;;;2.17;1.80;;;22.80;99.90;;;;;;5084516;28;20222;-67
2021/08/02 13:04:18;;;;;;;4.50;1.90;;;22.80;99.90;;;;;;5081027;28;20215;-67
2021/08/02 13:06:46;;;;;;;4.43;2.10;;;22.70;99.90;;;;;;5090365;28;20198;-66